Archival Weather

Chicago O'Hare International

Chicago, Illinois (KORD)

Report from: Friday, December 2, 2022 7:51 PM CST
Current time: Friday, June 21, 2024 3:36 AM CDT

Current weather – Weather history – Daily summaries
Weather forecast

Temperature11.1°C (52.0°F)
Dew point5.6°C (42.1°F)
Winds 18 kts (9.3 m/s, 20.7 mph) South-Southwest (210°)
Wind gusts 29 kts (14.9 m/s, 33.4 mph)
Peak wind 31 kts (15.9 m/s, 35.7 mph) Southwest (220°) at 01:34
Visibility10 mi. (16.1 km)
Clouds Few clouds 2,800 ft. (853 m)
Ceiling: Broken clouds 3,300 ft. (1,006 m)
Overcast 4,400 ft. (1,341 m)
Altimeter29.69 in.Hg (1005 mB)
Relative humidity69 %
Density altitude-69 ft. (-21 m)
Sea-level pressure100.6 kPa (1006 mB, 29.69 in.Hg)
Remarks Automated weather observing station with precipitation discriminator
Flight conditions Visual Meteorological Conditions
Raw dataKORD 030151Z 21018G29KT 10SM FEW028 BKN033 OVC044 11/06 A2969 RMK AO2 PK WND 22031/0134 SLP055 T01110056
An error has occurred. This application may no longer respond until reloaded. Reload 🗙